Time;durP1;ratioP1;P1;durP2;ratioP2;P2;SDS_P1;SDS_P2;PMS_P1;PMS_P2;Temp;Humidity;BMP_temperature;BMP_pressure;BME280_temperature;BME280_humidity;BME280_pressure;Samples;Min_cycle;Max_cycle;Signal;HPM_P1;HPM_P2
2021/12/13 00:01:56;;;;;;;10.15;7.13;;;;;;;12.33;71.87;101214.00;4999948;28;102399;-48
2021/12/13 00:04:27;;;;;;;10.48;7.32;;;;;;;12.33;71.79;101220.28;5009866;28;102159;-49
2021/12/13 00:06:59;;;;;;;12.13;7.72;;;;;;;12.33;71.93;101219.47;5005279;28;103951;-49
2021/12/13 00:09:28;;;;;;;10.85;7.20;;;;;;;12.33;71.91;101214.81;5013396;28;102230;-48
2021/12/13 00:11:59;;;;;;;10.90;7.68;;;;;;;12.33;71.90;101214.00;5014661;28;103171;-48
2021/12/13 00:14:37;;;;;;;12.63;7.18;;;;;;;12.34;71.89;101215.69;5018410;28;102268;-48
2021/12/13 00:17:07;;;;;;;10.80;7.55;;;;;;;12.34;71.95;101211.03;5019214;28;103880;-49
2021/12/13 00:19:39;;;;;;;11.98;7.57;;;;;;;12.34;71.93;101210.22;5012019;28;102210;-48
2021/12/13 00:22:12;;;;;;;12.02;7.82;;;;;;;12.33;71.87;101211.28;5025072;28;102338;-48
2021/12/13 00:24:41;;;;;;;10.80;7.57;;;;;;;12.35;72.04;101198.19;5034836;28;102132;-48
2021/12/13 00:27:10;;;;;;;11.52;7.28;;;;;;;12.35;71.85;101200.94;5033106;28;103722;-49
2021/12/13 00:29:45;;;;;;;11.65;7.38;;;;;;;12.34;71.83;101200.13;5022420;27;102231;-48
2021/12/13 00:32:18;;;;;;;11.57;8.18;;;;;;;12.35;72.06;101184.56;5035518;28;102497;-48
2021/12/13 00:34:50;;;;;;;9.65;7.07;;;;;;;12.34;71.92;101193.84;5033240;27;102055;-49
2021/12/13 00:37:21;;;;;;;10.88;6.93;;;;;;;12.35;71.90;101190.00;5022607;28;103830;-48
2021/12/13 00:39:51;;;;;;;12.98;7.90;;;;;;;12.35;71.90;101184.56;5031117;27;102122;-49
2021/12/13 00:42:20;;;;;;;9.70;7.03;;;;;;;12.35;71.92;101184.56;5034403;28;102380;-49
2021/12/13 00:44:48;;;;;;;10.75;7.50;;;;;;;12.34;71.94;101175.56;5027293;28;102696;-48
2021/12/13 00:47:20;;;;;;;10.47;7.33;;;;;;;12.35;72.08;101179.09;5017220;28;103930;-48
2021/12/13 00:49:52;;;;;;;12.60;7.47;;;;;;;12.35;71.91;101169.00;5032134;27;102504;-48
2021/12/13 00:52:20;;;;;;;10.50;7.68;;;;;;;12.35;71.91;101168.19;5028530;27;101986;-49
2021/12/13 00:54:48;;;;;;;13.05;7.90;;;;;;;12.35;71.96;101173.63;5034451;28;102164;-49
2021/12/13 00:57:32;;;;;;;10.77;7.45;;;;;;;12.36;71.73;101172.53;5034312;28;103911;-49
2021/12/13 01:00:04;;;;;;;12.30;7.93;;;;;;;12.35;72.01;101179.09;5018656;27;102268;-49
2021/12/13 01:02:39;;;;;;;11.02;7.40;;;;;;;12.35;72.04;101170.91;5027267;27;102193;-48
2021/12/13 01:05:11;;;;;;;11.98;7.35;;;;;;;12.35;71.94;101160.81;5034036;28;102197;-49
2021/12/13 01:08:04;;;;;;;9.68;7.20;;;;;;;12.35;71.92;101160.81;5032103;27;103955;-48
2021/12/13 01:11:04;;;;;;;10.88;7.40;;;;;;;12.35;71.86;101157.25;5038422;28;102273;-49
2021/12/13 01:13:37;;;;;;;10.30;6.72;;;;;;;12.36;71.87;101158.88;5031714;27;102861;-48
2021/12/13 01:16:20;;;;;;;9.57;7.18;;;;;;;12.36;71.85;101159.69;5036811;27;102624;-48
2021/12/13 01:19:28;;;;;;;10.45;7.63;;;;;;;12.36;71.64;101158.88;5030752;27;104163;-49
2021/12/13 01:21:57;;;;;;;11.77;6.95;;;;;;;12.34;71.99;101159.19;5031092;28;102182;-48
2021/12/13 01:27:12;;;;;;;11.27;7.47;;;;;;;12.36;72.12;101161.63;5029736;28;102353;-48
2021/12/13 01:29:39;;;;;;;10.38;6.95;;;;;;;12.37;71.98;101168.72;5035452;28;103779;-49
2021/12/13 01:32:09;;;;;;;8.98;6.68;;;;;;;12.36;72.04;101169.81;5035623;27;102910;-48
2021/12/13 01:34:37;;;;;;;10.95;7.03;;;;;;;12.36;71.87;101159.69;5032979;27;102305;-49
2021/12/13 01:37:13;;;;;;;12.05;7.00;;;;;;;12.36;71.91;101164.34;5028566;27;102176;-48
2021/12/13 01:39:42;;;;;;;9.65;7.43;;;;;;;12.36;71.99;101165.16;5030648;28;104004;-48
2021/12/13 01:42:11;;;;;;;12.48;7.75;;;;;;;12.36;72.16;101164.34;5023925;28;102157;-48
2021/12/13 01:44:41;;;;;;;;;;;;;;;12.37;72.02;101171.44;5026789;27;102219;-48
2021/12/13 01:47:10;;;;;;;9.77;6.90;;;;;;;12.36;72.05;101170.63;5027495;28;102240;-49
2021/12/13 01:49:41;;;;;;;10.63;6.88;;;;;;;12.37;71.89;101165.97;5036322;27;103928;-49
2021/12/13 01:52:16;;;;;;;11.27;6.78;;;;;;;12.37;71.90;101160.53;5035606;28;102416;-49
2021/12/13 01:54:44;;;;;;;9.27;6.78;;;;;;;12.37;71.89;101171.44;5019050;27;102123;-48
2021/12/13 01:59:54;;;;;;;9.52;7.05;;;;;;;12.37;72.00;101165.97;5025761;28;103234;-49
2021/12/13 02:02:29;;;;;;;8.90;6.15;;;;;;;12.38;71.86;101168.44;5024235;27;102551;-49
2021/12/13 02:05:01;;;;;;;9.75;6.13;;;;;;;12.38;72.08;101171.19;5020814;27;102413;-49
2021/12/13 02:07:36;;;;;;;9.35;6.32;;;;;;;12.38;72.02;101162.19;5031742;28;102088;-49
2021/12/13 02:10:07;;;;;;;9.60;7.00;;;;;;;12.38;71.67;101156.72;5038486;28;104009;-48
2021/12/13 02:12:42;;;;;;;8.77;6.40;;;;;;;12.39;71.91;101152.88;5029332;27;102263;-48
2021/12/13 02:17:57;;;;;;;9.38;6.25;;;;;;;12.39;72.07;101147.44;5037983;28;102200;-48
2021/12/13 02:20:30;;;;;;;8.55;6.47;;;;;;;12.40;72.00;101146.34;5036345;27;103835;-49
2021/12/13 02:22:58;;;;;;;11.27;6.30;;;;;;;12.40;72.00;101149.06;5029191;28;102327;-48
2021/12/13 02:25:28;;;;;;;9.32;6.57;;;;;;;12.40;72.10;101159.97;5028694;28;102334;-49
2021/12/13 02:27:58;;;;;;;11.48;6.30;;;;;;;12.41;72.11;101156.19;5034015;27;102325;-48
2021/12/13 02:30:34;;;;;;;8.23;6.13;;;;;;;12.41;71.98;101161.63;5033768;27;103763;-48
2021/12/13 02:33:03;;;;;;;8.82;6.55;;;;;;;12.41;71.90;101158.91;5034059;28;102314;-49
2021/12/13 02:35:33;;;;;;;7.30;5.82;;;;;;;12.41;72.53;101150.72;5032061;28;102573;-48
2021/12/13 02:38:05;;;;;;;8.68;6.45;;;;;;;12.42;72.10;101149.63;5032387;27;102198;-49
2021/12/13 02:40:33;;;;;;;12.20;6.75;;;;;;;12.41;71.97;101156.19;5034197;27;104200;-48
2021/12/13 02:43:00;;;;;;;11.50;6.25;;;;;;;12.43;71.97;101153.97;5036330;28;102227;-48
2021/12/13 02:45:29;;;;;;;6.95;5.88;;;;;;;12.43;71.92;101156.72;5033576;28;102259;-50
2021/12/13 02:48:03;;;;;;;9.00;6.40;;;;;;;12.43;71.92;101159.44;5030791;27;102493;-48
2021/12/13 02:50:41;;;;;;;8.63;5.68;;;;;;;12.43;71.95;101162.16;5034765;27;104131;-48
2021/12/13 02:53:18;;;;;;;9.77;5.93;;;;;;;12.42;72.04;101161.34;5022455;27;102249;-48
2021/12/13 02:55:45;;;;;;;8.52;6.10;;;;;;;12.43;72.18;101170.34;5031970;28;102178;-48
2021/12/13 02:58:15;;;;;;;6.90;5.22;;;;;;;12.45;71.89;101165.47;5033833;27;102203;-48
2021/12/13 03:00:46;;;;;;;9.05;5.80;;;;;;;12.43;71.96;101156.72;5029440;27;103907;-49
2021/12/13 03:03:17;;;;;;;8.43;5.80;;;;;;;12.44;71.84;101167.38;5025168;27;102262;-48
2021/12/13 03:05:47;;;;;;;7.28;5.38;;;;;;;12.43;72.08;101165.72;5028532;28;103208;-49
2021/12/13 03:08:19;;;;;;;5.65;4.82;;;;;;;12.45;72.07;101160.00;5036927;28;103540;-49
2021/12/13 03:10:50;;;;;;;7.60;5.60;;;;;;;12.44;71.89;101161.91;5029107;27;103881;-49
2021/12/13 03:13:17;;;;;;;7.60;5.70;;;;;;;12.45;71.64;101151.81;5024581;28;102561;-48
2021/12/13 03:15:57;;;;;;;8.25;5.22;;;;;;;12.45;72.15;101157.28;5035554;28;102231;-49
2021/12/13 03:18:32;;;;;;;6.13;5.18;;;;;;;12.45;71.97;101157.28;5027314;27;102140;-49
2021/12/13 03:21:11;;;;;;;10.30;5.68;;;;;;;12.46;72.02;101169.81;5030599;27;102694;-49
2021/12/13 03:23:55;;;;;;;8.18;5.88;;;;;;;12.45;72.04;101170.91;5021905;28;102693;-49
2021/12/13 03:26:43;;;;;;;7.80;5.30;;;;;;;12.45;71.97;101174.47;5018252;28;102400;-48
2021/12/13 03:29:15;;;;;;;6.80;4.97;;;;;;;12.45;72.04;101169.00;5028698;28;102522;-48
2021/12/13 03:31:44;;;;;;;10.50;6.22;;;;;;;12.46;72.07;101169.81;5021484;27;103848;-49
2021/12/13 03:34:16;;;;;;;8.35;5.47;;;;;;;12.45;72.07;101169.00;5029659;28;102223;-48
2021/12/13 03:36:52;;;;;;;7.78;5.55;;;;;;;12.46;71.91;101165.16;5030159;28;102497;-48
2021/12/13 03:39:22;;;;;;;7.47;4.95;;;;;;;12.47;72.16;101171.44;5033517;28;103686;-48
2021/12/13 03:41:52;;;;;;;6.93;5.22;;;;;;;12.46;72.22;101158.91;5027910;27;103912;-49
2021/12/13 03:44:31;;;;;;;7.20;5.40;;;;;;;12.47;72.12;101135.97;5022138;28;102468;-48
2021/12/13 03:47:07;;;;;;;6.40;4.80;;;;;;;12.47;72.04;101139.50;5029616;28;102537;-49
2021/12/13 03:49:39;;;;;;;6.70;5.03;;;;;;;12.46;72.03;101137.88;5032792;28;102153;-48
2021/12/13 03:52:09;;;;;;;7.07;5.10;;;;;;;12.46;72.07;101150.72;5023230;27;104063;-48
2021/12/13 03:54:39;;;;;;;6.57;5.32;;;;;;;12.47;72.11;101150.41;5032886;27;102363;-48
2021/12/13 03:57:06;;;;;;;7.55;5.13;;;;;;;12.46;71.81;101135.16;5033110;27;102487;-49
2021/12/13 03:59:37;;;;;;;7.32;4.90;;;;;;;12.47;71.92;101138.69;5035584;28;102526;-48
2021/12/13 04:02:07;;;;;;;5.68;4.90;;;;;;;12.47;72.37;101147.69;5032011;27;104114;-48
2021/12/13 04:04:40;;;;;;;7.80;4.97;;;;;;;12.47;71.99;101150.41;5027171;28;102383;-48
2021/12/13 04:07:19;;;;;;;6.93;4.75;;;;;;;12.47;72.23;101161.34;5033243;28;102459;-49
2021/12/13 04:09:49;;;;;;;6.53;5.05;;;;;;;12.47;71.80;101149.59;5029172;27;102315;-48
2021/12/13 04:12:17;;;;;;;6.43;4.80;;;;;;;12.47;71.99;101144.97;5018094;28;103915;-49
2021/12/13 04:14:50;;;;;;;6.07;4.70;;;;;;;12.48;72.11;101151.28;5027525;28;102613;-48
2021/12/13 04:17:36;;;;;;;5.88;4.65;;;;;;;12.48;72.13;101152.09;5031258;27;102256;-49
2021/12/13 04:20:08;;;;;;;6.18;4.63;;;;;;;12.47;72.17;101150.41;5034150;28;102562;-48
2021/12/13 04:22:38;;;;;;;7.00;4.60;;;;;;;12.49;72.01;101158.34;5028168;27;104004;-48
2021/12/13 04:25:11;;;;;;;6.82;5.20;;;;;;;12.49;72.07;101158.34;5029421;27;103200;-48
2021/12/13 04:27:41;;;;;;;6.25;4.90;;;;;;;12.49;71.99;101152.91;5033213;28;102997;-49
2021/12/13 04:30:18;;;;;;;6.43;4.63;;;;;;;12.49;72.03;101147.44;5032677;27;102325;-48
2021/12/13 04:32:49;;;;;;;5.50;4.53;;;;;;;12.49;71.84;101155.63;5033911;28;103705;-49
2021/12/13 04:35:16;;;;;;;5.63;4.18;;;;;;;12.47;72.01;101155.88;5031081;27;102246;-49
2021/12/13 04:37:46;;;;;;;6.75;4.25;;;;;;;12.49;71.90;101161.91;5023965;28;102585;-49
2021/12/13 04:40:18;;;;;;;5.78;4.32;;;;;;;12.49;72.07;101161.09;5017555;27;102306;-48
2021/12/13 04:42:49;;;;;;;5.43;3.92;;;;;;;12.49;71.95;101172.81;5017908;28;102701;-49
2021/12/13 04:45:18;;;;;;;4.75;4.13;;;;;;;12.50;71.96;101174.44;5024049;28;102072;-48
2021/12/13 04:47:52;;;;;;;5.80;4.05;;;;;;;12.50;72.04;101176.38;5032368;28;102077;-48
2021/12/13 04:50:25;;;;;;;5.90;4.18;;;;;;;12.50;72.11;101182.63;5034387;27;102206;-48
2021/12/13 04:52:55;;;;;;;5.97;4.18;;;;;;;12.50;72.13;101176.38;5034264;28;103907;-49
2021/12/13 04:55:29;;;;;;;5.57;3.90;;;;;;;12.50;71.94;101174.44;5033806;28;102161;-48
2021/12/13 04:57:58;;;;;;;6.32;4.32;;;;;;;12.50;72.16;101165.44;5032746;27;102223;-48
2021/12/13 05:00:30;;;;;;;5.15;4.13;;;;;;;12.51;71.97;101164.34;5029881;27;102302;-49
2021/12/13 05:03:01;;;;;;;6.20;4.10;;;;;;;12.51;72.26;101161.63;5033976;28;103835;-48
2021/12/13 05:05:30;;;;;;;5.05;3.95;;;;;;;12.50;71.90;101163.53;5028231;28;102381;-48
2021/12/13 05:07:56;;;;;;;;;;;;;;;12.52;72.11;101163.28;5032025;27;102363;-49
2021/12/13 05:10:25;;;;;;;6.30;4.13;;;;;;;12.52;72.31;101174.19;5034537;27;102632;-48
2021/12/13 05:13:01;;;;;;;6.93;4.32;;;;;;;12.52;71.91;101176.09;5032584;28;103668;-48
2021/12/13 05:15:29;;;;;;;5.60;4.07;;;;;;;12.52;72.16;101176.94;5035195;28;102108;-48
2021/12/13 05:17:57;;;;;;;6.07;4.40;;;;;;;12.52;72.06;101179.66;5028686;27;102340;-48
2021/12/13 05:20:28;;;;;;;5.20;3.92;;;;;;;12.53;72.16;101186.75;5024609;28;102566;-48
2021/12/13 05:22:58;;;;;;;5.97;3.88;;;;;;;12.53;72.02;101175.00;5025733;27;103852;-48
2021/12/13 05:25:31;;;;;;;8.15;4.85;;;;;;;12.54;72.19;101188.38;5025951;28;102235;-48
2021/12/13 05:28:02;;;;;;;6.13;3.90;;;;;;;12.54;72.06;101193.03;5022765;28;103229;-48
2021/12/13 05:30:29;;;;;;;5.22;3.47;;;;;;;12.53;72.05;101194.94;5025161;28;102670;-49
2021/12/13 05:32:58;;;;;;;6.60;4.05;;;;;;;12.54;72.10;101199.28;5024507;27;105244;-49
2021/12/13 05:35:31;;;;;;;5.20;3.75;;;;;;;12.54;72.10;101202.03;5030643;27;105263;-49
2021/12/13 05:38:01;;;;;;;5.72;4.03;;;;;;;12.54;72.15;101202.03;5025957;28;102346;-48
2021/12/13 05:40:37;;;;;;;5.88;4.15;;;;;;;12.55;72.12;101211.03;5025617;27;102813;-48
2021/12/13 05:43:15;;;;;;;5.25;4.07;;;;;;;12.55;72.15;101216.50;5024676;27;104094;-49
2021/12/13 05:45:50;;;;;;;4.75;3.45;;;;;;;12.55;72.27;101220.06;5027006;27;102464;-48
2021/12/13 05:48:19;;;;;;;5.53;4.03;;;;;;;12.56;72.16;101220.88;5023691;27;103235;-51
2021/12/13 05:50:49;;;;;;;5.55;4.28;;;;;;;12.56;72.06;101224.44;5030653;27;102226;-50
2021/12/13 05:53:19;;;;;;;5.70;4.22;;;;;;;12.56;72.08;101215.41;5025886;27;103813;-50
2021/12/13 05:55:52;;;;;;;5.38;4.10;;;;;;;12.56;71.85;101201.78;5030598;27;102097;-51
2021/12/13 05:58:37;;;;;;;5.00;4.30;;;;;;;12.56;72.08;101202.59;5030469;27;102610;-51
2021/12/13 06:01:11;;;;;;;6.30;4.30;;;;;;;12.57;72.10;101206.94;5020085;27;103739;-50
2021/12/13 06:03:43;;;;;;;4.40;3.53;;;;;;;12.57;72.20;101209.66;5025819;27;105737;-48
2021/12/13 06:06:12;;;;;;;5.18;3.83;;;;;;;12.57;72.06;101220.59;5033453;27;102397;-48
2021/12/13 06:08:45;;;;;;;5.57;3.92;;;;;;;12.57;72.20;101208.84;5027769;27;104053;-48
2021/12/13 06:11:17;;;;;;;6.25;3.85;;;;;;;12.58;72.42;101200.38;5035644;28;102286;-48
2021/12/13 06:13:59;;;;;;;5.97;4.38;;;;;;;12.58;72.11;101186.72;5035710;28;103937;-49
2021/12/13 06:16:46;;;;;;;4.53;3.50;;;;;;;12.58;72.28;101183.19;5035939;28;102386;-48
2021/12/13 06:19:21;;;;;;;5.47;4.10;;;;;;;12.57;72.13;101176.91;5034892;27;102208;-48
2021/12/13 06:21:59;;;;;;;6.18;4.20;;;;;;;12.58;72.32;101186.72;5035326;27;102646;-49
2021/12/13 06:24:29;;;;;;;4.93;3.95;;;;;;;12.57;72.18;101192.47;5032148;27;103930;-49
2021/12/13 06:27:11;;;;;;;5.00;4.05;;;;;;;12.58;72.27;101200.38;5027342;27;102162;-49
2021/12/13 06:30:04;;;;;;;4.32;3.42;;;;;;;12.58;72.25;101194.91;5021577;27;102622;-49
2021/12/13 06:32:38;;;;;;;5.43;4.43;;;;;;;12.58;72.44;101200.38;5026894;27;102511;-49
2021/12/13 06:35:34;;;;;;;5.32;3.95;;;;;;;12.58;72.24;101197.66;5025774;27;104086;-49
2021/12/13 06:38:41;;;;;;;4.57;3.65;;;;;;;12.58;72.30;101192.19;5029610;27;102750;-49
2021/12/13 06:41:25;;;;;;;5.55;4.13;;;;;;;12.58;72.18;101196.84;4990073;28;103356;-48
2021/12/13 06:43:56;;;;;;;4.70;3.63;;;;;;;12.59;72.26;101195.78;5010081;27;102384;-49
2021/12/13 06:46:43;;;;;;;5.90;4.13;;;;;;;12.58;72.28;101205.84;5027585;27;104086;-48
2021/12/13 06:49:18;;;;;;;5.10;3.90;;;;;;;12.58;72.12;101214.03;5027136;28;104569;-49
2021/12/13 06:51:48;;;;;;;5.28;3.63;;;;;;;12.57;72.07;101215.13;5019293;27;103004;-48
2021/12/13 06:54:18;;;;;;;6.85;3.92;;;;;;;12.58;72.30;101216.75;5034407;27;102219;-50
2021/12/13 06:56:53;;;;;;;4.50;3.90;;;;;;;12.59;72.28;101218.44;5033613;27;104009;-48
2021/12/13 06:59:21;;;;;;;6.00;4.28;;;;;;;12.59;72.10;101223.06;5033186;27;102188;-48
2021/12/13 07:02:01;;;;;;;5.50;4.30;;;;;;;12.58;72.13;101227.69;5031396;27;102204;-50
2021/12/13 07:04:38;;;;;;;4.25;3.85;;;;;;;12.58;72.27;101227.69;5032730;27;102059;-49
2021/12/13 07:07:10;;;;;;;5.00;4.28;;;;;;;12.58;72.25;101222.22;5030751;27;103933;-49
2021/12/13 07:09:38;;;;;;;4.22;3.70;;;;;;;12.58;72.29;101227.69;5029170;27;102392;-48
2021/12/13 07:12:15;;;;;;;4.95;3.85;;;;;;;12.59;72.07;101234.00;5025838;27;102422;-48
2021/12/13 07:14:44;;;;;;;4.78;4.03;;;;;;;12.57;72.10;101247.91;5035358;27;102845;-48
2021/12/13 07:17:14;;;;;;;4.38;3.53;;;;;;;12.58;72.29;101233.16;5036719;27;103900;-49
2021/12/13 07:19:44;;;;;;;4.72;3.70;;;;;;;12.58;72.13;101238.59;5036801;27;102255;-48
2021/12/13 07:22:17;;;;;;;5.53;4.10;;;;;;;12.59;72.28;101245.72;5023404;27;102411;-49
2021/12/13 07:24:47;;;;;;;5.18;4.15;;;;;;;12.57;72.16;101242.44;5012018;27;103709;-49
2021/12/13 07:27:15;;;;;;;5.70;4.60;;;;;;;12.59;72.36;101255.84;5010639;27;103906;-48
2021/12/13 07:29:47;;;;;;;4.77;3.93;;;;;;;12.58;72.16;101235.06;5018175;27;104743;-49
2021/12/13 07:32:18;;;;;;;14.82;5.07;;;;;;;12.58;72.13;101235.88;5021654;27;103319;-48
2021/12/13 07:34:52;;;;;;;22.63;8.57;;;;;;;12.58;72.35;101238.59;5021445;27;102447;-49
2021/12/13 07:37:33;;;;;;;146.90;72.28;;;;;;;12.58;72.19;101238.59;5027520;27;105342;-50
2021/12/13 07:40:15;;;;;;;5.68;4.82;;;;;;;12.59;72.17;101248.47;5029886;27;102575;-48
2021/12/13 07:42:54;;;;;;;6.25;5.05;;;;;;;12.58;72.26;101249.53;5018068;27;102639;-48
2021/12/13 07:45:23;;;;;;;;;;;;;;;12.59;72.10;101255.84;5021431;27;102508;-50
2021/12/13 07:47:50;;;;;;;62.15;58.22;;;;;;;12.58;72.17;101263.19;5021518;27;103770;-48
2021/12/13 07:50:20;;;;;;;6.93;5.20;;;;;;;12.58;72.28;101265.91;5028628;27;102367;-49
2021/12/13 07:52:54;;;;;;;3.38;3.08;;;;;;;12.58;72.20;101263.19;5025358;27;103315;-49
2021/12/13 07:55:25;;;;;;;3.70;3.40;;;;;;;12.58;72.31;101255.00;5029810;27;104151;-49
2021/12/13 07:57:53;;;;;;;4.18;3.65;;;;;;;12.58;72.26;101263.19;5024349;27;103954;-48
2021/12/13 08:00:25;;;;;;;3.90;3.53;;;;;;;12.59;72.25;101261.28;5027312;27;103468;-49
2021/12/13 08:02:58;;;;;;;5.13;3.88;;;;;;;12.59;72.24;101261.28;5028384;27;103024;-48
2021/12/13 08:05:28;;;;;;;4.88;4.47;;;;;;;12.57;72.28;101256.09;5024830;28;102297;-49
2021/12/13 08:07:59;;;;;;;5.07;4.53;;;;;;;12.59;72.30;101248.47;5028413;27;108580;-49
2021/12/13 08:10:29;;;;;;;6.07;4.70;;;;;;;12.59;72.19;101245.72;5031895;27;102944;-49
2021/12/13 08:13:02;;;;;;;2.95;2.30;;;;;;;12.60;72.36;101247.34;5022684;27;102138;-49
2021/12/13 08:15:36;;;;;;;3.13;2.83;;;;;;;12.59;72.19;101237.53;5032015;27;106022;-48
2021/12/13 08:18:08;;;;;;;3.45;3.15;;;;;;;12.59;72.29;101234.81;5024159;27;103890;-48
2021/12/13 08:20:41;;;;;;;3.88;3.50;;;;;;;12.60;72.39;101232.88;5025598;27;103066;-48
2021/12/13 08:23:15;;;;;;;5.70;4.35;;;;;;;12.59;72.29;101234.81;5024543;27;103935;-48
2021/12/13 08:25:46;;;;;;;5.30;4.18;;;;;;;12.60;72.42;101247.34;5029027;27;105494;-48
2021/12/13 08:28:17;;;;;;;5.05;4.43;;;;;;;12.60;72.27;101247.34;5024732;27;103944;-48
2021/12/13 08:30:48;;;;;;;4.47;3.92;;;;;;;12.60;72.20;101241.91;5024048;27;102047;-48
2021/12/13 08:33:18;;;;;;;4.22;3.78;;;;;;;12.60;72.17;101235.63;5026533;27;102172;-48
2021/12/13 08:35:54;;;;;;;4.60;4.20;;;;;;;12.59;72.36;101251.19;5025470;27;102552;-49
2021/12/13 08:38:31;;;;;;;5.25;4.55;;;;;;;12.60;72.35;101241.09;5017727;27;103912;-48
2021/12/13 08:41:00;;;;;;;9.65;5.82;;;;;;;12.60;72.15;101241.91;5029497;27;102949;-48
2021/12/13 08:43:39;;;;;;;6.68;5.03;;;;;;;12.61;72.37;101257.19;5022158;27;102298;-48
2021/12/13 08:46:09;;;;;;;6.30;4.68;;;;;;;12.61;72.32;101265.38;5028807;27;104307;-49
2021/12/13 08:48:43;;;;;;;;;;;;;;;12.61;72.20;101281.75;5026194;27;103853;-48
2021/12/13 08:51:20;;;;;;;6.07;4.55;;;;;;;12.60;72.37;101285.59;5028953;27;102525;-50
2021/12/13 08:53:59;;;;;;;4.55;4.15;;;;;;;12.62;72.37;101288.88;5024142;27;102147;-49
2021/12/13 08:56:31;;;;;;;6.57;5.18;;;;;;;12.62;72.14;101288.03;5029701;27;104066;-48
2021/12/13 08:59:03;;;;;;;6.25;4.90;;;;;;;12.62;72.24;101283.41;5022159;27;103715;-48
2021/12/13 09:01:42;;;;;;;6.18;4.60;;;;;;;12.61;72.38;101287.22;5029332;27;102580;-48
2021/12/13 09:04:10;;;;;;;5.78;4.68;;;;;;;12.63;72.23;101293.25;5018597;27;102998;-50
2021/12/13 09:06:37;;;;;;;5.60;4.47;;;;;;;12.62;72.25;101305.25;5029123;27;104121;-48
2021/12/13 09:09:11;;;;;;;6.10;4.78;;;;;;;12.63;72.15;101295.16;5027704;27;102745;-49
2021/12/13 09:11:43;;;;;;;4.55;4.05;;;;;;;12.62;72.29;101297.06;5027124;27;102791;-49
2021/12/13 09:14:15;;;;;;;5.15;4.63;;;;;;;12.64;72.22;101300.34;5025802;27;102069;-49
2021/12/13 09:17:07;;;;;;;6.65;4.75;;;;;;;12.63;72.44;101295.97;5025807;27;102414;-48
2021/12/13 09:19:44;;;;;;;6.15;5.20;;;;;;;12.63;72.29;101290.50;5025596;27;103962;-48
2021/12/13 09:22:14;;;;;;;7.10;5.47;;;;;;;12.65;72.36;101284.75;5025234;27;102670;-49
2021/12/13 09:24:48;;;;;;;5.75;5.15;;;;;;;12.63;72.30;101284.22;5026683;27;102540;-48
2021/12/13 09:27:36;;;;;;;6.65;5.20;;;;;;;12.65;72.24;101285.56;5028317;27;102548;-49
2021/12/13 09:30:15;;;;;;;6.65;5.45;;;;;;;12.65;72.39;101282.03;5027908;27;108165;-48
2021/12/13 09:32:48;;;;;;;7.18;5.82;;;;;;;12.64;72.83;101289.41;5030203;27;102537;-48
2021/12/13 09:35:20;;;;;;;3.47;3.17;;;;;;;12.65;72.42;101287.50;5031278;27;102908;-48
2021/12/13 09:37:47;;;;;;;6.68;6.07;;;;;;;12.65;72.23;101282.84;5032189;27;102193;-48
2021/12/13 09:40:16;;;;;;;11.88;7.70;;;;;;;12.64;72.31;101286.69;5026701;27;103767;-48
2021/12/13 09:42:47;;;;;;;11.50;8.05;;;;;;;12.66;72.32;101305.53;5028290;27;102494;-49
2021/12/13 09:45:21;;;;;;;24.05;22.38;;;;;;;12.66;72.37;101309.09;5029542;27;102221;-48
2021/12/13 09:47:49;;;;;;;49.22;45.60;;;;;;;12.65;72.26;101310.16;5028969;27;102154;-49
2021/12/13 09:50:19;;;;;;;15.88;14.68;;;;;;;12.65;72.41;101296.50;5027087;27;103972;-48
2021/12/13 09:52:51;;;;;;;97.55;89.70;;;;;;;12.65;72.37;101293.78;5026951;27;102363;-48
2021/12/13 09:55:21;;;;;;;76.57;71.38;;;;;;;12.66;72.23;101292.69;5030044;27;102309;-48
2021/12/13 09:57:53;;;;;;;11.57;9.43;;;;;;;12.67;72.46;101293.53;5028556;27;103186;-48
2021/12/13 10:00:24;;;;;;;10.10;7.68;;;;;;;12.66;72.42;101292.69;5032334;27;103882;-48
2021/12/13 10:02:57;;;;;;;23.88;22.08;;;;;;;12.66;72.33;101289.97;5027467;27;102364;-48
2021/12/13 10:05:29;;;;;;;11.65;7.88;;;;;;;12.66;72.39;101284.50;5027319;27;103329;-49
2021/12/13 10:08:00;;;;;;;11.90;8.10;;;;;;;12.67;72.48;101294.34;5028811;27;102011;-49
2021/12/13 10:10:32;;;;;;;9.13;8.23;;;;;;;12.66;72.25;101279.06;5027137;27;104192;-48
2021/12/13 10:13:02;;;;;;;10.98;7.85;;;;;;;12.66;72.26;101272.78;5022231;27;102651;-48
2021/12/13 10:15:33;;;;;;;9.95;8.20;;;;;;;12.66;72.33;101276.31;5024830;27;102394;-49
2021/12/13 10:18:08;;;;;;;10.70;8.15;;;;;;;12.65;72.32;101277.38;5028196;27;102298;-48
2021/12/13 10:20:42;;;;;;;10.57;7.35;;;;;;;12.66;72.49;101261.84;5025378;27;104293;-48
2021/12/13 10:23:12;;;;;;;11.00;7.75;;;;;;;12.67;72.36;101264.28;5024428;27;102191;-48
2021/12/13 10:25:44;;;;;;;9.70;7.45;;;;;;;12.67;72.75;101258.03;5025055;27;102216;-48
2021/12/13 10:28:15;;;;;;;10.93;7.40;;;;;;;12.66;72.51;101246.28;5022005;27;102507;-49
2021/12/13 10:30:46;;;;;;;12.43;8.32;;;;;;;12.66;72.37;101246.28;5030874;27;103936;-48
2021/12/13 10:33:16;;;;;;;10.25;7.60;;;;;;;12.67;72.49;101237.00;5034520;27;102444;-48
2021/12/13 10:35:44;;;;;;;9.98;7.90;;;;;;;12.66;72.31;101229.91;5029903;27;102171;-48
2021/12/13 10:38:13;;;;;;;7.85;7.05;;;;;;;12.66;72.50;101224.44;5020460;27;102508;-48
2021/12/13 10:40:43;;;;;;;;;;;;;;;12.67;72.47;101230.72;5034135;27;103946;-48
2021/12/13 10:43:12;;;;;;;11.25;7.30;;;;;;;12.66;72.42;101229.91;5032719;27;102493;-48
2021/12/13 10:45:43;;;;;;;8.15;6.15;;;;;;;12.66;72.47;101232.63;5031496;27;102118;-48
2021/12/13 10:48:12;;;;;;;9.60;6.80;;;;;;;12.66;72.59;101224.44;5033685;27;102449;-49
2021/12/13 10:50:43;;;;;;;8.95;6.78;;;;;;;12.66;72.33;101224.44;5028704;27;103836;-48
2021/12/13 10:53:13;;;;;;;7.75;6.60;;;;;;;12.66;72.38;101229.91;5019050;27;102329;-48
2021/12/13 10:55:44;;;;;;;7.78;5.68;;;;;;;12.66;72.46;101204.50;5030307;27;106119;-48
2021/12/13 10:58:13;;;;;;;9.60;6.57;;;;;;;12.66;72.39;101193.59;5024964;27;103459;-49
2021/12/13 11:00:45;;;;;;;7.90;6.32;;;;;;;12.66;72.27;101188.94;5029849;27;105571;-49
2021/12/13 11:03:15;;;;;;;10.18;5.68;;;;;;;12.66;72.39;101185.38;5024013;27;102120;-49
2021/12/13 11:05:43;;;;;;;8.95;6.18;;;;;;;12.66;72.45;101196.31;5023838;27;102058;-49
2021/12/13 11:08:12;;;;;;;7.18;5.70;;;;;;;12.65;72.23;101206.38;5030676;27;102435;-48
2021/12/13 11:10:48;;;;;;;8.68;5.82;;;;;;;12.66;72.36;101212.69;5024409;27;103937;-48
2021/12/13 11:13:16;;;;;;;6.43;5.05;;;;;;;12.66;72.18;101218.97;5031971;27;103175;-49
2021/12/13 11:15:47;;;;;;;8.52;5.63;;;;;;;12.66;72.38;101229.09;5025059;27;102393;-48
2021/12/13 11:18:17;;;;;;;7.50;5.40;;;;;;;12.67;72.27;101241.63;5031436;27;102573;-48
2021/12/13 11:20:50;;;;;;;7.10;5.30;;;;;;;12.66;72.27;101251.75;5028737;27;103909;-48
2021/12/13 11:23:19;;;;;;;6.93;5.45;;;;;;;12.67;72.36;101242.44;5008271;28;103730;-48
2021/12/13 11:25:50;;;;;;;6.65;5.15;;;;;;;12.67;72.03;101238.91;5005469;28;102348;-48
2021/12/13 11:28:17;;;;;;;7.13;5.20;;;;;;;12.68;72.31;101246.81;4998001;28;102251;-49
2021/12/13 11:30:47;;;;;;;7.70;5.75;;;;;;;12.68;72.44;101249.53;5006697;28;103927;-48
2021/12/13 11:34:01;;;;;;;6.85;5.43;;;;;;;12.67;72.45;101247.91;5003934;28;104291;-49
2021/12/13 11:36:49;;;;;;;7.05;5.47;;;;;;;12.68;72.47;101249.53;5005555;28;102295;-49
2021/12/13 11:39:32;;;;;;;5.18;4.60;;;;;;;12.67;72.35;101253.38;5008986;28;102982;-48
2021/12/13 11:42:40;;;;;;;6.65;5.15;;;;;;;12.68;72.43;101257.72;4999523;28;104234;-50
2021/12/13 11:45:43;;;;;;;6.20;4.65;;;;;;;12.68;72.49;101252.28;5000474;28;102062;-48
2021/12/13 11:48:30;;;;;;;6.38;4.90;;;;;;;12.69;72.45;101244.91;5003273;28;102437;-49
2021/12/13 11:51:25;;;;;;;5.70;4.25;;;;;;;12.68;72.35;101238.63;5006427;28;102714;-49
2021/12/13 11:54:20;;;;;;;5.53;4.78;;;;;;;12.68;72.40;101249.53;5001157;28;104050;-48